sensor_id;sensor_type;location;lat;lon;timestamp;P1;durP1;ratioP1;P2;durP2;ratioP2
12482;SDS011;6306;47.134;15.344;2022-11-12T00:01:24;7.17;;;5.10;;
12482;SDS011;6306;47.134;15.344;2022-11-12T00:03:50;8.07;;;5.53;;
12482;SDS011;6306;47.134;15.344;2022-11-12T00:06:16;6.30;;;4.90;;
12482;SDS011;6306;47.134;15.344;2022-11-12T00:08:42;7.73;;;5.80;;
12482;SDS011;6306;47.134;15.344;2022-11-12T00:11:08;11.90;;;5.33;;
12482;SDS011;6306;47.134;15.344;2022-11-12T00:13:34;7.90;;;5.60;;
12482;SDS011;6306;47.134;15.344;2022-11-12T00:16:00;9.67;;;5.60;;
12482;SDS011;6306;47.134;15.344;2022-11-12T00:18:26;11.40;;;6.10;;
12482;SDS011;6306;47.134;15.344;2022-11-12T00:20:52;8.27;;;6.20;;
12482;SDS011;6306;47.134;15.344;2022-11-12T00:23:18;8.03;;;5.37;;
12482;SDS011;6306;47.134;15.344;2022-11-12T00:25:44;8.00;;;5.10;;
12482;SDS011;6306;47.134;15.344;2022-11-12T00:28:10;7.43;;;5.17;;
12482;SDS011;6306;47.134;15.344;2022-11-12T00:30:37;7.50;;;5.27;;
12482;SDS011;6306;47.134;15.344;2022-11-12T00:33:03;7.67;;;5.10;;
12482;SDS011;6306;47.134;15.344;2022-11-12T00:35:30;7.73;;;6.07;;
12482;SDS011;6306;47.134;15.344;2022-11-12T00:37:57;9.00;;;5.80;;
12482;SDS011;6306;47.134;15.344;2022-11-12T00:40:23;9.43;;;6.00;;
12482;SDS011;6306;47.134;15.344;2022-11-12T00:42:50;8.00;;;5.23;;
12482;SDS011;6306;47.134;15.344;2022-11-12T00:45:17;7.20;;;5.60;;
12482;SDS011;6306;47.134;15.344;2022-11-12T00:47:43;7.50;;;4.93;;
12482;SDS011;6306;47.134;15.344;2022-11-12T00:50:09;7.20;;;6.00;;
12482;SDS011;6306;47.134;15.344;2022-11-12T00:52:35;11.00;;;6.83;;
12482;SDS011;6306;47.134;15.344;2022-11-12T00:55:01;9.73;;;8.07;;
12482;SDS011;6306;47.134;15.344;2022-11-12T00:57:27;7.80;;;5.07;;
12482;SDS011;6306;47.134;15.344;2022-11-12T00:59:53;12.10;;;5.00;;
12482;SDS011;6306;47.134;15.344;2022-11-12T01:02:19;5.97;;;4.73;;
12482;SDS011;6306;47.134;15.344;2022-11-12T01:04:46;7.73;;;5.37;;
12482;SDS011;6306;47.134;15.344;2022-11-12T01:07:12;8.93;;;5.67;;
12482;SDS011;6306;47.134;15.344;2022-11-12T01:09:39;9.10;;;5.60;;
12482;SDS011;6306;47.134;15.344;2022-11-12T01:12:05;6.90;;;5.00;;
12482;SDS011;6306;47.134;15.344;2022-11-12T01:14:32;8.47;;;5.23;;
12482;SDS011;6306;47.134;15.344;2022-11-12T01:16:58;8.53;;;4.77;;
12482;SDS011;6306;47.134;15.344;2022-11-12T01:19:24;7.37;;;4.87;;
12482;SDS011;6306;47.134;15.344;2022-11-12T01:21:50;11.60;;;5.60;;
12482;SDS011;6306;47.134;15.344;2022-11-12T01:24:16;7.60;;;6.40;;
12482;SDS011;6306;47.134;15.344;2022-11-12T01:26:42;9.10;;;5.63;;
12482;SDS011;6306;47.134;15.344;2022-11-12T01:29:08;7.07;;;5.20;;
12482;SDS011;6306;47.134;15.344;2022-11-12T01:31:35;8.00;;;5.47;;
12482;SDS011;6306;47.134;15.344;2022-11-12T01:34:02;7.27;;;5.23;;
12482;SDS011;6306;47.134;15.344;2022-11-12T01:36:32;13.40;;;5.60;;
12482;SDS011;6306;47.134;15.344;2022-11-12T01:38:58;8.07;;;5.10;;
12482;SDS011;6306;47.134;15.344;2022-11-12T01:41:25;7.30;;;4.90;;
12482;SDS011;6306;47.134;15.344;2022-11-12T01:46:39;9.27;;;6.50;;
12482;SDS011;6306;47.134;15.344;2022-11-12T01:49:09;7.63;;;5.67;;
12482;SDS011;6306;47.134;15.344;2022-11-12T01:51:39;10.53;;;5.53;;
12482;SDS011;6306;47.134;15.344;2022-11-12T01:54:06;9.53;;;5.87;;
12482;SDS011;6306;47.134;15.344;2022-11-12T01:56:34;9.80;;;5.27;;
12482;SDS011;6306;47.134;15.344;2022-11-12T01:59:01;10.77;;;6.40;;
12482;SDS011;6306;47.134;15.344;2022-11-12T02:01:28;13.30;;;6.13;;
12482;SDS011;6306;47.134;15.344;2022-11-12T02:03:54;7.70;;;6.80;;
12482;SDS011;6306;47.134;15.344;2022-11-12T02:06:20;12.47;;;6.07;;
12482;SDS011;6306;47.134;15.344;2022-11-12T02:08:47;9.57;;;5.80;;
12482;SDS011;6306;47.134;15.344;2022-11-12T02:11:15;11.17;;;6.73;;
12482;SDS011;6306;47.134;15.344;2022-11-12T02:13:42;9.27;;;5.60;;
12482;SDS011;6306;47.134;15.344;2022-11-12T02:16:28;9.20;;;6.33;;
12482;SDS011;6306;47.134;15.344;2022-11-12T02:18:55;8.87;;;5.57;;
12482;SDS011;6306;47.134;15.344;2022-11-12T02:21:22;10.50;;;7.10;;
12482;SDS011;6306;47.134;15.344;2022-11-12T02:26:27;12.10;;;7.30;;
12482;SDS011;6306;47.134;15.344;2022-11-12T02:28:54;10.57;;;7.10;;
12482;SDS011;6306;47.134;15.344;2022-11-12T02:31:20;8.40;;;6.63;;
12482;SDS011;6306;47.134;15.344;2022-11-12T02:33:46;8.20;;;6.23;;
12482;SDS011;6306;47.134;15.344;2022-11-12T02:36:12;9.33;;;5.63;;
12482;SDS011;6306;47.134;15.344;2022-11-12T02:38:38;11.70;;;6.30;;
12482;SDS011;6306;47.134;15.344;2022-11-12T02:41:04;9.07;;;6.10;;
12482;SDS011;6306;47.134;15.344;2022-11-12T02:43:30;13.00;;;6.80;;
12482;SDS011;6306;47.134;15.344;2022-11-12T02:45:56;9.50;;;6.30;;
12482;SDS011;6306;47.134;15.344;2022-11-12T02:48:22;10.40;;;6.63;;
12482;SDS011;6306;47.134;15.344;2022-11-12T02:50:48;7.73;;;5.67;;
12482;SDS011;6306;47.134;15.344;2022-11-12T02:53:14;7.70;;;6.00;;
12482;SDS011;6306;47.134;15.344;2022-11-12T02:55:41;9.40;;;5.80;;
12482;SDS011;6306;47.134;15.344;2022-11-12T02:58:07;10.43;;;6.10;;
12482;SDS011;6306;47.134;15.344;2022-11-12T03:00:33;7.30;;;5.87;;
12482;SDS011;6306;47.134;15.344;2022-11-12T03:02:59;7.10;;;5.23;;
12482;SDS011;6306;47.134;15.344;2022-11-12T03:05:29;12.07;;;6.87;;
12482;SDS011;6306;47.134;15.344;2022-11-12T03:07:59;12.93;;;6.07;;
12482;SDS011;6306;47.134;15.344;2022-11-12T03:10:25;9.20;;;5.40;;
12482;SDS011;6306;47.134;15.344;2022-11-12T03:12:52;7.40;;;5.50;;
12482;SDS011;6306;47.134;15.344;2022-11-12T03:15:18;11.10;;;6.20;;
12482;SDS011;6306;47.134;15.344;2022-11-12T03:17:44;7.47;;;5.43;;
12482;SDS011;6306;47.134;15.344;2022-11-12T03:20:11;9.00;;;5.07;;
12482;SDS011;6306;47.134;15.344;2022-11-12T03:22:37;8.57;;;5.73;;
12482;SDS011;6306;47.134;15.344;2022-11-12T03:25:04;14.73;;;7.20;;
12482;SDS011;6306;47.134;15.344;2022-11-12T03:27:30;9.40;;;6.80;;
12482;SDS011;6306;47.134;15.344;2022-11-12T03:29:56;10.30;;;5.87;;
12482;SDS011;6306;47.134;15.344;2022-11-12T03:32:22;9.00;;;5.47;;
12482;SDS011;6306;47.134;15.344;2022-11-12T03:34:48;8.10;;;5.33;;
12482;SDS011;6306;47.134;15.344;2022-11-12T03:37:14;11.40;;;6.37;;
12482;SDS011;6306;47.134;15.344;2022-11-12T03:39:40;8.20;;;5.67;;
12482;SDS011;6306;47.134;15.344;2022-11-12T03:42:06;10.97;;;6.10;;
12482;SDS011;6306;47.134;15.344;2022-11-12T03:44:32;7.03;;;5.43;;
12482;SDS011;6306;47.134;15.344;2022-11-12T03:46:58;8.47;;;5.10;;
12482;SDS011;6306;47.134;15.344;2022-11-12T03:49:24;8.50;;;6.00;;
12482;SDS011;6306;47.134;15.344;2022-11-12T03:51:51;11.20;;;5.83;;
12482;SDS011;6306;47.134;15.344;2022-11-12T03:54:17;7.77;;;4.80;;
12482;SDS011;6306;47.134;15.344;2022-11-12T03:56:44;9.00;;;5.67;;
12482;SDS011;6306;47.134;15.344;2022-11-12T03:59:10;9.37;;;6.50;;
12482;SDS011;6306;47.134;15.344;2022-11-12T04:01:36;8.33;;;5.17;;
12482;SDS011;6306;47.134;15.344;2022-11-12T04:04:02;8.70;;;5.80;;
12482;SDS011;6306;47.134;15.344;2022-11-12T04:06:28;11.10;;;6.80;;
12482;SDS011;6306;47.134;15.344;2022-11-12T04:09:12;7.03;;;5.00;;
12482;SDS011;6306;47.134;15.344;2022-11-12T04:11:38;10.80;;;6.67;;
12482;SDS011;6306;47.134;15.344;2022-11-12T04:14:04;8.47;;;5.57;;
12482;SDS011;6306;47.134;15.344;2022-11-12T04:16:30;7.60;;;5.27;;
12482;SDS011;6306;47.134;15.344;2022-11-12T04:19:15;8.87;;;5.23;;
12482;SDS011;6306;47.134;15.344;2022-11-12T04:22:02;9.57;;;5.67;;
12482;SDS011;6306;47.134;15.344;2022-11-12T04:24:29;11.17;;;6.33;;
12482;SDS011;6306;47.134;15.344;2022-11-12T04:27:18;7.10;;;4.30;;
12482;SDS011;6306;47.134;15.344;2022-11-12T04:29:44;12.43;;;6.57;;
12482;SDS011;6306;47.134;15.344;2022-11-12T04:32:30;8.07;;;5.60;;
12482;SDS011;6306;47.134;15.344;2022-11-12T04:34:56;8.03;;;5.63;;
12482;SDS011;6306;47.134;15.344;2022-11-12T04:37:23;11.40;;;5.67;;
12482;SDS011;6306;47.134;15.344;2022-11-12T04:39:50;6.20;;;5.23;;
12482;SDS011;6306;47.134;15.344;2022-11-12T04:42:16;9.87;;;6.50;;
12482;SDS011;6306;47.134;15.344;2022-11-12T04:45:01;11.33;;;5.10;;
12482;SDS011;6306;47.134;15.344;2022-11-12T04:49:55;11.67;;;5.83;;
12482;SDS011;6306;47.134;15.344;2022-11-12T04:52:21;10.80;;;5.73;;
12482;SDS011;6306;47.134;15.344;2022-11-12T04:54:47;7.27;;;4.17;;
12482;SDS011;6306;47.134;15.344;2022-11-12T04:57:13;10.83;;;5.70;;
12482;SDS011;6306;47.134;15.344;2022-11-12T04:59:39;7.23;;;4.67;;
12482;SDS011;6306;47.134;15.344;2022-11-12T05:02:05;9.17;;;5.20;;
12482;SDS011;6306;47.134;15.344;2022-11-12T05:04:31;10.93;;;6.03;;
12482;SDS011;6306;47.134;15.344;2022-11-12T05:06:57;8.20;;;5.53;;
12482;SDS011;6306;47.134;15.344;2022-11-12T05:09:24;10.80;;;6.10;;
12482;SDS011;6306;47.134;15.344;2022-11-12T05:11:51;8.00;;;5.20;;
12482;SDS011;6306;47.134;15.344;2022-11-12T05:14:17;8.90;;;5.47;;
12482;SDS011;6306;47.134;15.344;2022-11-12T05:16:43;8.43;;;4.60;;
12482;SDS011;6306;47.134;15.344;2022-11-12T05:19:09;8.60;;;4.90;;
12482;SDS011;6306;47.134;15.344;2022-11-12T05:21:35;7.43;;;5.00;;
12482;SDS011;6306;47.134;15.344;2022-11-12T05:24:20;5.40;;;4.50;;
12482;SDS011;6306;47.134;15.344;2022-11-12T05:26:46;9.37;;;5.40;;
12482;SDS011;6306;47.134;15.344;2022-11-12T05:29:13;9.13;;;5.47;;
12482;SDS011;6306;47.134;15.344;2022-11-12T05:31:39;14.13;;;5.47;;
12482;SDS011;6306;47.134;15.344;2022-11-12T05:34:05;10.90;;;5.20;;
12482;SDS011;6306;47.134;15.344;2022-11-12T05:36:31;7.13;;;5.00;;
12482;SDS011;6306;47.134;15.344;2022-11-12T05:38:58;7.77;;;6.07;;
12482;SDS011;6306;47.134;15.344;2022-11-12T05:41:24;6.07;;;4.90;;
12482;SDS011;6306;47.134;15.344;2022-11-12T05:43:50;8.10;;;4.97;;
12482;SDS011;6306;47.134;15.344;2022-11-12T05:46:17;7.77;;;5.70;;
12482;SDS011;6306;47.134;15.344;2022-11-12T05:48:43;8.97;;;5.10;;
12482;SDS011;6306;47.134;15.344;2022-11-12T05:51:09;8.03;;;5.73;;
12482;SDS011;6306;47.134;15.344;2022-11-12T05:53:37;6.77;;;4.83;;
12482;SDS011;6306;47.134;15.344;2022-11-12T05:56:03;9.70;;;5.93;;
12482;SDS011;6306;47.134;15.344;2022-11-12T05:58:30;9.10;;;5.80;;
12482;SDS011;6306;47.134;15.344;2022-11-12T06:00:56;11.60;;;6.30;;
12482;SDS011;6306;47.134;15.344;2022-11-12T06:03:22;8.63;;;6.17;;
12482;SDS011;6306;47.134;15.344;2022-11-12T06:05:48;9.50;;;5.80;;
12482;SDS011;6306;47.134;15.344;2022-11-12T06:08:14;9.50;;;6.53;;
12482;SDS011;6306;47.134;15.344;2022-11-12T06:10:40;9.77;;;6.70;;
12482;SDS011;6306;47.134;15.344;2022-11-12T06:13:06;8.23;;;5.60;;
12482;SDS011;6306;47.134;15.344;2022-11-12T06:15:32;6.43;;;5.70;;
12482;SDS011;6306;47.134;15.344;2022-11-12T06:17:58;9.93;;;6.10;;
12482;SDS011;6306;47.134;15.344;2022-11-12T06:20:24;8.73;;;5.50;;
12482;SDS011;6306;47.134;15.344;2022-11-12T06:22:50;8.20;;;4.63;;
12482;SDS011;6306;47.134;15.344;2022-11-12T06:25:16;7.17;;;5.00;;
12482;SDS011;6306;47.134;15.344;2022-11-12T06:27:42;6.70;;;5.00;;
12482;SDS011;6306;47.134;15.344;2022-11-12T06:30:09;6.40;;;5.53;;
12482;SDS011;6306;47.134;15.344;2022-11-12T06:32:35;12.93;;;6.27;;
12482;SDS011;6306;47.134;15.344;2022-11-12T06:35:01;8.60;;;5.80;;
12482;SDS011;6306;47.134;15.344;2022-11-12T06:37:27;7.03;;;5.80;;
12482;SDS011;6306;47.134;15.344;2022-11-12T06:39:53;9.23;;;6.17;;
12482;SDS011;6306;47.134;15.344;2022-11-12T06:42:19;9.13;;;5.60;;
12482;SDS011;6306;47.134;15.344;2022-11-12T06:44:45;7.77;;;4.60;;
12482;SDS011;6306;47.134;15.344;2022-11-12T06:47:11;10.17;;;5.60;;
12482;SDS011;6306;47.134;15.344;2022-11-12T06:49:37;19.03;;;5.73;;
12482;SDS011;6306;47.134;15.344;2022-11-12T06:52:03;12.33;;;5.80;;
12482;SDS011;6306;47.134;15.344;2022-11-12T06:54:29;8.37;;;6.60;;
12482;SDS011;6306;47.134;15.344;2022-11-12T06:56:55;9.13;;;5.10;;
12482;SDS011;6306;47.134;15.344;2022-11-12T06:59:21;8.73;;;5.00;;
12482;SDS011;6306;47.134;15.344;2022-11-12T07:01:47;13.77;;;7.40;;
12482;SDS011;6306;47.134;15.344;2022-11-12T07:04:13;10.60;;;6.90;;
12482;SDS011;6306;47.134;15.344;2022-11-12T07:06:39;9.27;;;6.60;;
12482;SDS011;6306;47.134;15.344;2022-11-12T07:09:05;9.50;;;5.30;;
12482;SDS011;6306;47.134;15.344;2022-11-12T07:11:31;8.47;;;6.10;;
12482;SDS011;6306;47.134;15.344;2022-11-12T07:13:57;8.07;;;5.33;;
12482;SDS011;6306;47.134;15.344;2022-11-12T07:16:23;15.63;;;7.57;;
12482;SDS011;6306;47.134;15.344;2022-11-12T07:18:49;7.73;;;5.63;;
12482;SDS011;6306;47.134;15.344;2022-11-12T07:21:18;11.37;;;6.33;;
12482;SDS011;6306;47.134;15.344;2022-11-12T07:23:45;12.07;;;7.03;;
12482;SDS011;6306;47.134;15.344;2022-11-12T07:26:12;10.73;;;7.40;;
12482;SDS011;6306;47.134;15.344;2022-11-12T07:28:38;11.57;;;6.57;;
12482;SDS011;6306;47.134;15.344;2022-11-12T07:31:06;6.30;;;5.57;;
12482;SDS011;6306;47.134;15.344;2022-11-12T07:33:32;8.90;;;6.37;;
12482;SDS011;6306;47.134;15.344;2022-11-12T07:36:02;9.20;;;6.13;;
12482;SDS011;6306;47.134;15.344;2022-11-12T07:38:29;8.03;;;5.90;;
12482;SDS011;6306;47.134;15.344;2022-11-12T07:40:59;9.60;;;5.67;;
12482;SDS011;6306;47.134;15.344;2022-11-12T07:43:25;11.23;;;6.80;;
12482;SDS011;6306;47.134;15.344;2022-11-12T07:45:51;10.93;;;6.93;;
12482;SDS011;6306;47.134;15.344;2022-11-12T07:48:17;12.90;;;7.83;;
12482;SDS011;6306;47.134;15.344;2022-11-12T07:50:43;13.90;;;8.00;;
12482;SDS011;6306;47.134;15.344;2022-11-12T07:53:09;12.27;;;8.70;;
12482;SDS011;6306;47.134;15.344;2022-11-12T07:55:35;14.20;;;6.93;;
12482;SDS011;6306;47.134;15.344;2022-11-12T07:58:01;12.60;;;7.80;;
12482;SDS011;6306;47.134;15.344;2022-11-12T08:00:27;10.10;;;7.10;;
12482;SDS011;6306;47.134;15.344;2022-11-12T08:02:53;9.60;;;6.27;;
12482;SDS011;6306;47.134;15.344;2022-11-12T08:05:19;11.20;;;8.50;;
12482;SDS011;6306;47.134;15.344;2022-11-12T08:07:45;10.67;;;7.47;;
12482;SDS011;6306;47.134;15.344;2022-11-12T08:10:11;9.27;;;7.73;;
12482;SDS011;6306;47.134;15.344;2022-11-12T08:12:37;10.60;;;7.27;;
12482;SDS011;6306;47.134;15.344;2022-11-12T08:15:03;8.60;;;6.67;;
12482;SDS011;6306;47.134;15.344;2022-11-12T08:17:29;14.27;;;7.30;;
12482;SDS011;6306;47.134;15.344;2022-11-12T08:19:55;9.40;;;5.80;;
12482;SDS011;6306;47.134;15.344;2022-11-12T08:22:21;9.80;;;6.63;;
12482;SDS011;6306;47.134;15.344;2022-11-12T08:24:47;13.70;;;7.40;;
12482;SDS011;6306;47.134;15.344;2022-11-12T08:27:13;8.70;;;5.93;;
12482;SDS011;6306;47.134;15.344;2022-11-12T08:29:39;14.70;;;7.70;;
12482;SDS011;6306;47.134;15.344;2022-11-12T08:32:05;11.90;;;7.10;;
12482;SDS011;6306;47.134;15.344;2022-11-12T08:34:31;12.43;;;7.43;;
12482;SDS011;6306;47.134;15.344;2022-11-12T08:36:57;8.50;;;5.37;;
12482;SDS011;6306;47.134;15.344;2022-11-12T08:39:24;9.10;;;6.00;;
12482;SDS011;6306;47.134;15.344;2022-11-12T08:41:50;7.77;;;5.30;;
12482;SDS011;6306;47.134;15.344;2022-11-12T08:44:16;9.70;;;6.17;;
12482;SDS011;6306;47.134;15.344;2022-11-12T08:46:42;9.63;;;5.93;;
12482;SDS011;6306;47.134;15.344;2022-11-12T08:49:08;7.27;;;5.73;;
12482;SDS011;6306;47.134;15.344;2022-11-12T08:51:34;9.97;;;6.00;;
12482;SDS011;6306;47.134;15.344;2022-11-12T08:54:00;7.53;;;5.13;;
12482;SDS011;6306;47.134;15.344;2022-11-12T08:56:26;8.03;;;6.07;;
12482;SDS011;6306;47.134;15.344;2022-11-12T08:58:52;10.63;;;6.10;;
12482;SDS011;6306;47.134;15.344;2022-11-12T09:01:18;8.40;;;5.43;;
12482;SDS011;6306;47.134;15.344;2022-11-12T09:03:44;5.60;;;4.77;;
12482;SDS011;6306;47.134;15.344;2022-11-12T09:06:10;7.30;;;4.70;;
12482;SDS011;6306;47.134;15.344;2022-11-12T09:08:36;7.20;;;3.90;;
12482;SDS011;6306;47.134;15.344;2022-11-12T09:11:03;8.00;;;4.87;;
12482;SDS011;6306;47.134;15.344;2022-11-12T09:13:30;9.30;;;5.03;;
12482;SDS011;6306;47.134;15.344;2022-11-12T09:16:00;7.80;;;5.40;;
12482;SDS011;6306;47.134;15.344;2022-11-12T09:18:26;8.50;;;5.47;;
12482;SDS011;6306;47.134;15.344;2022-11-12T09:20:52;4.93;;;3.53;;
12482;SDS011;6306;47.134;15.344;2022-11-12T09:23:18;6.17;;;4.60;;
12482;SDS011;6306;47.134;15.344;2022-11-12T09:25:44;4.80;;;4.03;;
12482;SDS011;6306;47.134;15.344;2022-11-12T09:28:17;6.27;;;4.73;;
12482;SDS011;6306;47.134;15.344;2022-11-12T09:30:44;5.97;;;4.70;;
12482;SDS011;6306;47.134;15.344;2022-11-12T09:33:14;6.50;;;4.77;;
12482;SDS011;6306;47.134;15.344;2022-11-12T09:35:41;4.70;;;4.13;;
12482;SDS011;6306;47.134;15.344;2022-11-12T09:38:07;7.60;;;5.13;;
12482;SDS011;6306;47.134;15.344;2022-11-12T09:45:44;6.97;;;5.57;;
12482;SDS011;6306;47.134;15.344;2022-11-12T09:48:11;6.17;;;5.17;;
12482;SDS011;6306;47.134;15.344;2022-11-12T09:50:44;6.57;;;5.00;;
12482;SDS011;6306;47.134;15.344;2022-11-12T09:55:41;8.10;;;4.50;;
12482;SDS011;6306;47.134;15.344;2022-11-12T09:58:09;5.47;;;4.23;;
12482;SDS011;6306;47.134;15.344;2022-11-12T10:00:36;4.97;;;4.10;;
12482;SDS011;6306;47.134;15.344;2022-11-12T10:03:27;3.77;;;3.40;;
12482;SDS011;6306;47.134;15.344;2022-11-12T10:05:51;4.67;;;3.20;;
12482;SDS011;6306;47.134;15.344;2022-11-12T10:10:52;4.43;;;2.93;;
12482;SDS011;6306;47.134;15.344;2022-11-12T10:13:23;3.20;;;2.80;;
12482;SDS011;6306;47.134;15.344;2022-11-12T10:23:45;6.10;;;2.73;;
12482;SDS011;6306;47.134;15.344;2022-11-12T10:26:16;5.80;;;3.20;;
12482;SDS011;6306;47.134;15.344;2022-11-12T10:28:45;2.73;;;2.50;;
12482;SDS011;6306;47.134;15.344;2022-11-12T10:31:13;2.60;;;2.40;;
12482;SDS011;6306;47.134;15.344;2022-11-12T10:33:40;4.13;;;2.00;;
12482;SDS011;6306;47.134;15.344;2022-11-12T10:38:52;2.90;;;2.30;;
12482;SDS011;6306;47.134;15.344;2022-11-12T10:41:28;3.60;;;3.07;;
12482;SDS011;6306;47.134;15.344;2022-11-12T10:43:56;3.40;;;2.47;;
12482;SDS011;6306;47.134;15.344;2022-11-12T10:46:23;3.97;;;2.50;;
12482;SDS011;6306;47.134;15.344;2022-11-12T10:49:32;3.27;;;2.60;;
12482;SDS011;6306;47.134;15.344;2022-11-12T10:51:40;3.00;;;2.30;;
12482;SDS011;6306;47.134;15.344;2022-11-12T10:56:50;4.03;;;2.30;;
12482;SDS011;6306;47.134;15.344;2022-11-12T10:59:20;3.60;;;2.40;;
12482;SDS011;6306;47.134;15.344;2022-11-12T11:01:53;3.97;;;2.53;;
12482;SDS011;6306;47.134;15.344;2022-11-12T11:06:56;2.60;;;2.20;;
12482;SDS011;6306;47.134;15.344;2022-11-12T11:09:22;5.70;;;3.07;;
12482;SDS011;6306;47.134;15.344;2022-11-12T11:11:50;5.20;;;2.40;;
12482;SDS011;6306;47.134;15.344;2022-11-12T11:16:50;3.80;;;2.30;;
12482;SDS011;6306;47.134;15.344;2022-11-12T11:19:17;3.00;;;2.70;;
12482;SDS011;6306;47.134;15.344;2022-11-12T11:29:25;3.40;;;2.27;;
12482;SDS011;6306;47.134;15.344;2022-11-12T11:31:58;5.93;;;2.90;;
12482;SDS011;6306;47.134;15.344;2022-11-12T11:44:44;4.00;;;2.70;;
12482;SDS011;6306;47.134;15.344;2022-11-12T11:49:43;4.03;;;2.77;;
12482;SDS011;6306;47.134;15.344;2022-11-12T11:57:09;4.03;;;3.17;;
12482;SDS011;6306;47.134;15.344;2022-11-12T12:04:47;7.07;;;5.33;;
12482;SDS011;6306;47.134;15.344;2022-11-12T12:12:15;7.57;;;5.43;;
12482;SDS011;6306;47.134;15.344;2022-11-12T12:20:49;6.80;;;4.53;;
12482;SDS011;6306;47.134;15.344;2022-11-12T12:22:50;6.77;;;4.93;;
12482;SDS011;6306;47.134;15.344;2022-11-12T12:25:20;11.37;;;5.10;;
12482;SDS011;6306;47.134;15.344;2022-11-12T12:27:58;4.67;;;4.27;;
12482;SDS011;6306;47.134;15.344;2022-11-12T12:30:27;6.83;;;4.30;;
12482;SDS011;6306;47.134;15.344;2022-11-12T12:33:02;6.33;;;4.80;;
12482;SDS011;6306;47.134;15.344;2022-11-12T12:40:39;5.20;;;3.97;;
12482;SDS011;6306;47.134;15.344;2022-11-12T12:43:16;5.60;;;4.73;;
12482;SDS011;6306;47.134;15.344;2022-11-12T12:45:45;5.13;;;3.73;;
12482;SDS011;6306;47.134;15.344;2022-11-12T12:48:26;10.00;;;5.43;;
12482;SDS011;6306;47.134;15.344;2022-11-12T12:50:53;9.83;;;3.80;;
12482;SDS011;6306;47.134;15.344;2022-11-12T12:55:52;6.00;;;4.10;;
12482;SDS011;6306;47.134;15.344;2022-11-12T13:01:04;9.97;;;3.97;;
12482;SDS011;6306;47.134;15.344;2022-11-12T13:30:02;3.40;;;3.10;;
12482;SDS011;6306;47.134;15.344;2022-11-12T13:32:29;3.50;;;2.77;;
12482;SDS011;6306;47.134;15.344;2022-11-12T13:35:12;5.80;;;3.80;;
12482;SDS011;6306;47.134;15.344;2022-11-12T13:37:55;4.43;;;2.63;;
12482;SDS011;6306;47.134;15.344;2022-11-12T13:42:47;5.20;;;2.10;;
12482;SDS011;6306;47.134;15.344;2022-11-12T13:45:21;2.70;;;2.50;;
12482;SDS011;6306;47.134;15.344;2022-11-12T13:47:48;3.17;;;2.57;;
12482;SDS011;6306;47.134;15.344;2022-11-12T13:50:15;3.80;;;2.00;;
12482;SDS011;6306;47.134;15.344;2022-11-12T13:52:42;3.70;;;2.33;;
12482;SDS011;6306;47.134;15.344;2022-11-12T13:55:18;3.90;;;2.50;;
12482;SDS011;6306;47.134;15.344;2022-11-12T13:58:02;2.50;;;2.10;;
12482;SDS011;6306;47.134;15.344;2022-11-12T14:00:29;5.07;;;2.83;;
12482;SDS011;6306;47.134;15.344;2022-11-12T14:02:59;5.57;;;3.50;;
12482;SDS011;6306;47.134;15.344;2022-11-12T14:05:32;6.03;;;3.77;;
12482;SDS011;6306;47.134;15.344;2022-11-12T14:13:30;4.17;;;3.47;;
12482;SDS011;6306;47.134;15.344;2022-11-12T14:16:11;6.67;;;4.13;;
12482;SDS011;6306;47.134;15.344;2022-11-12T14:19:04;2.60;;;2.40;;
12482;SDS011;6306;47.134;15.344;2022-11-12T14:21:31;4.63;;;2.13;;
12482;SDS011;6306;47.134;15.344;2022-11-12T14:23:57;3.83;;;2.90;;
12482;SDS011;6306;47.134;15.344;2022-11-12T14:26:39;4.60;;;3.30;;
12482;SDS011;6306;47.134;15.344;2022-11-12T14:29:06;4.20;;;3.80;;
12482;SDS011;6306;47.134;15.344;2022-11-12T14:31:32;5.97;;;3.67;;
12482;SDS011;6306;47.134;15.344;2022-11-12T14:36:43;5.40;;;3.20;;
12482;SDS011;6306;47.134;15.344;2022-11-12T14:39:10;4.50;;;2.53;;
12482;SDS011;6306;47.134;15.344;2022-11-12T14:41:37;5.50;;;2.83;;
12482;SDS011;6306;47.134;15.344;2022-11-12T14:44:09;2.80;;;2.50;;
12482;SDS011;6306;47.134;15.344;2022-11-12T14:49:03;2.27;;;1.93;;
12482;SDS011;6306;47.134;15.344;2022-11-12T14:51:33;2.70;;;2.27;;
12482;SDS011;6306;47.134;15.344;2022-11-12T14:54:03;3.37;;;2.60;;
12482;SDS011;6306;47.134;15.344;2022-11-12T14:56:32;4.23;;;2.20;;
12482;SDS011;6306;47.134;15.344;2022-11-12T14:58:59;3.60;;;2.80;;
12482;SDS011;6306;47.134;15.344;2022-11-12T15:01:29;2.87;;;2.23;;
12482;SDS011;6306;47.134;15.344;2022-11-12T15:04:33;4.60;;;3.13;;
12482;SDS011;6306;47.134;15.344;2022-11-12T15:06:51;7.10;;;3.30;;
12482;SDS011;6306;47.134;15.344;2022-11-12T15:09:18;3.70;;;2.83;;
12482;SDS011;6306;47.134;15.344;2022-11-12T15:11:46;5.93;;;3.37;;
12482;SDS011;6306;47.134;15.344;2022-11-12T15:14:20;5.00;;;2.97;;
12482;SDS011;6306;47.134;15.344;2022-11-12T15:16:46;7.60;;;3.47;;
12482;SDS011;6306;47.134;15.344;2022-11-12T15:19:14;5.10;;;3.77;;
12482;SDS011;6306;47.134;15.344;2022-11-12T15:21:45;6.63;;;4.00;;
12482;SDS011;6306;47.134;15.344;2022-11-12T15:26:42;4.67;;;2.87;;
12482;SDS011;6306;47.134;15.344;2022-11-12T15:31:46;7.57;;;3.60;;
12482;SDS011;6306;47.134;15.344;2022-11-12T15:34:31;6.20;;;3.00;;
12482;SDS011;6306;47.134;15.344;2022-11-12T15:36:59;3.90;;;3.30;;
12482;SDS011;6306;47.134;15.344;2022-11-12T15:39:26;6.60;;;3.87;;
12482;SDS011;6306;47.134;15.344;2022-11-12T15:42:01;5.07;;;3.57;;
12482;SDS011;6306;47.134;15.344;2022-11-12T15:44:31;4.07;;;3.47;;
12482;SDS011;6306;47.134;15.344;2022-11-12T15:46:58;5.63;;;3.73;;
12482;SDS011;6306;47.134;15.344;2022-11-12T15:49:24;7.80;;;3.33;;
12482;SDS011;6306;47.134;15.344;2022-11-12T15:51:50;6.87;;;4.10;;
12482;SDS011;6306;47.134;15.344;2022-11-12T15:54:16;8.13;;;4.00;;
12482;SDS011;6306;47.134;15.344;2022-11-12T15:56:42;13.03;;;3.90;;
12482;SDS011;6306;47.134;15.344;2022-11-12T15:59:13;5.50;;;3.83;;
12482;SDS011;6306;47.134;15.344;2022-11-12T16:01:40;9.40;;;4.20;;
12482;SDS011;6306;47.134;15.344;2022-11-12T16:04:06;7.93;;;4.10;;
12482;SDS011;6306;47.134;15.344;2022-11-12T16:06:32;5.83;;;3.73;;
12482;SDS011;6306;47.134;15.344;2022-11-12T16:08:58;6.07;;;4.80;;
12482;SDS011;6306;47.134;15.344;2022-11-12T16:11:24;7.40;;;5.20;;
12482;SDS011;6306;47.134;15.344;2022-11-12T16:14:00;6.60;;;5.00;;
12482;SDS011;6306;47.134;15.344;2022-11-12T16:16:26;12.37;;;5.00;;
12482;SDS011;6306;47.134;15.344;2022-11-12T16:18:52;11.00;;;4.33;;
12482;SDS011;6306;47.134;15.344;2022-11-12T16:21:18;11.93;;;4.00;;
12482;SDS011;6306;47.134;15.344;2022-11-12T16:23:44;12.93;;;5.40;;
12482;SDS011;6306;47.134;15.344;2022-11-12T16:26:10;9.27;;;6.00;;
12482;SDS011;6306;47.134;15.344;2022-11-12T16:28:38;12.53;;;5.93;;
12482;SDS011;6306;47.134;15.344;2022-11-12T16:31:04;18.47;;;5.50;;
12482;SDS011;6306;47.134;15.344;2022-11-12T16:33:30;13.10;;;5.97;;
12482;SDS011;6306;47.134;15.344;2022-11-12T16:35:56;19.00;;;6.53;;
12482;SDS011;6306;47.134;15.344;2022-11-12T16:38:22;9.80;;;6.47;;
12482;SDS011;6306;47.134;15.344;2022-11-12T16:40:49;9.13;;;5.87;;
12482;SDS011;6306;47.134;15.344;2022-11-12T16:43:16;10.03;;;6.87;;
12482;SDS011;6306;47.134;15.344;2022-11-12T16:45:42;9.87;;;6.10;;
12482;SDS011;6306;47.134;15.344;2022-11-12T16:48:14;11.70;;;5.90;;
12482;SDS011;6306;47.134;15.344;2022-11-12T16:50:40;11.47;;;5.93;;
12482;SDS011;6306;47.134;15.344;2022-11-12T16:53:06;10.30;;;5.77;;
12482;SDS011;6306;47.134;15.344;2022-11-12T16:55:32;11.13;;;5.33;;
12482;SDS011;6306;47.134;15.344;2022-11-12T16:57:58;9.00;;;7.60;;
12482;SDS011;6306;47.134;15.344;2022-11-12T17:00:24;10.77;;;7.63;;
12482;SDS011;6306;47.134;15.344;2022-11-12T17:02:52;9.63;;;7.00;;